Terminal Aerodrome Forecast
Issued by NWS Sterling, VA

Current Version | Previous Version | Graphics & Text | Print | Product List | Glossary Off
Versions: 1 2 3 4 5 6 7 8 9 10 11 12 13 14 15 16 17 18 19 20 21 22 23 24 25

000
FTUS41 KLWX 051248 AAA
TAFIAD
TAF AMD
KIAD 051248Z 0513/0618 22005KT P6SM BKN008 OVC035
     FM051400 29008KT P6SM SCT008 BKN050
     FM051600 32008G16KT P6SM BKN050
     FM052200 33007KT P6SM SCT200
     FM060500 VRB03KT P6SM OVC200
     FM061300 09005KT 6SM RAPL OVC050=

USA.gov is the U.S. government's official web portal to all federal, state and local government web resources and services.